createdAt,value
2019-04-26T00:00:04.030Z,53
2019-04-26T00:01:02.816Z,53
2019-04-26T00:02:03.465Z,53
2019-04-26T00:03:02.959Z,53
2019-04-26T00:04:03.827Z,53
2019-04-26T00:05:03.765Z,53
2019-04-26T00:06:03.612Z,53
2019-04-26T00:07:04.185Z,53
2019-04-26T00:08:03.512Z,53
2019-04-26T00:09:04.455Z,54
2019-04-26T00:10:03.736Z,54
2019-04-26T00:11:03.548Z,54
2019-04-26T00:12:03.627Z,54
2019-04-26T00:13:36.580Z,54
2019-04-26T00:15:04.310Z,54
2019-04-26T00:16:03.310Z,54
2019-04-26T00:17:04.446Z,54
2019-04-26T00:18:03.601Z,54
2019-04-26T00:19:04.105Z,54
2019-04-26T00:20:03.367Z,54
2019-04-26T00:21:03.022Z,54
2019-04-26T00:22:03.870Z,54
2019-04-26T00:23:03.005Z,54
2019-04-26T00:24:03.726Z,54
2019-04-26T00:25:03.026Z,55
2019-04-26T00:26:03.447Z,55
2019-04-26T00:27:03.325Z,55
2019-04-26T00:28:03.304Z,55
2019-04-26T00:29:03.020Z,55
2019-04-26T00:30:03.388Z,55
2019-04-26T00:31:03.137Z,55
2019-04-26T00:32:02.785Z,55
2019-04-26T00:33:03.288Z,55
2019-04-26T00:34:03.184Z,55
2019-04-26T00:35:03.286Z,55
2019-04-26T00:36:03.092Z,55
2019-04-26T00:37:03.052Z,56
2019-04-26T00:38:03.192Z,56
2019-04-26T00:39:03.239Z,55
2019-04-26T00:40:03.110Z,55
2019-04-26T00:41:03.747Z,56
2019-04-26T00:42:03.806Z,56
2019-04-26T00:43:03.760Z,56
2019-04-26T00:44:03.673Z,56
2019-04-26T00:45:03.634Z,56
2019-04-26T00:46:03.745Z,56
2019-04-26T00:47:03.366Z,56
2019-04-26T00:48:03.645Z,56
2019-04-26T00:49:03.469Z,56
2019-04-26T00:50:03.765Z,56
2019-04-26T00:51:03.825Z,56
2019-04-26T00:52:03.394Z,56
2019-04-26T00:53:03.220Z,56
2019-04-26T00:54:03.199Z,56
2019-04-26T00:55:03.485Z,56
2019-04-26T00:56:02.968Z,56
2019-04-26T00:57:03.175Z,56
2019-04-26T00:58:03.734Z,56
2019-04-26T00:59:03.193Z,56
2019-04-26T01:00:03.182Z,56
2019-04-26T01:01:02.901Z,56
2019-04-26T01:02:03.685Z,57
2019-04-26T01:03:02.784Z,57
2019-04-26T01:04:03.381Z,57
2019-04-26T01:05:03.108Z,57
2019-04-26T01:06:03.005Z,57
2019-04-26T01:07:02.870Z,57
2019-04-26T01:08:02.782Z,57
2019-04-26T01:09:02.739Z,57
2019-04-26T01:10:02.860Z,57
2019-04-26T01:11:04.041Z,57
2019-04-26T01:12:03.646Z,57
2019-04-26T01:13:03.424Z,57
2019-04-26T01:14:03.490Z,58
2019-04-26T01:15:03.723Z,58
2019-04-26T01:16:02.024Z,58
2019-04-26T01:17:03.565Z,58
2019-04-26T01:18:03.490Z,58
2019-04-26T01:19:03.336Z,58
2019-04-26T01:20:03.588Z,58
2019-04-26T01:21:03.308Z,58
2019-04-26T01:22:03.363Z,58
2019-04-26T01:23:03.143Z,58
2019-04-26T01:24:03.197Z,58
2019-04-26T01:25:02.972Z,59
2019-04-26T01:26:03.175Z,59
2019-04-26T01:27:02.880Z,59
2019-04-26T01:28:02.908Z,59
2019-04-26T01:29:02.973Z,59
2019-04-26T01:30:02.748Z,59
2019-04-26T01:31:02.903Z,59
2019-04-26T01:32:02.889Z,59
2019-04-26T01:33:03.616Z,59
2019-04-26T01:35:36.227Z,59
2019-04-26T01:37:03.514Z,59
2019-04-26T01:38:03.742Z,58
2019-04-26T01:39:03.004Z,58
2019-04-26T01:40:03.692Z,58
2019-04-26T01:41:03.435Z,58
2019-04-26T01:42:03.727Z,58
2019-04-26T01:43:03.205Z,58
2019-04-26T01:44:03.213Z,58
2019-04-26T01:45:03.590Z,58
2019-04-26T01:46:03.363Z,58
2019-04-26T01:47:03.293Z,58
2019-04-26T01:48:03.009Z,58
2019-04-26T01:49:03.417Z,58
2019-04-26T01:50:03.482Z,58
2019-04-26T01:51:03.078Z,58
2019-04-26T01:52:03.320Z,58
2019-04-26T01:53:03.057Z,57
2019-04-26T01:54:02.885Z,58
2019-04-26T01:55:03.121Z,58
2019-04-26T01:56:02.983Z,58
2019-04-26T01:57:02.974Z,58
2019-04-26T01:58:03.219Z,58
2019-04-26T01:59:03.073Z,58
2019-04-26T02:00:03.906Z,57
2019-04-26T02:01:03.647Z,57
2019-04-26T02:02:03.951Z,57
2019-04-26T02:03:03.113Z,57
2019-04-26T02:04:03.555Z,57
2019-04-26T02:05:03.774Z,57
2019-04-26T02:06:03.680Z,57
2019-04-26T02:07:03.209Z,57
2019-04-26T02:08:03.343Z,57
2019-04-26T02:09:03.180Z,58
2019-04-26T02:10:03.336Z,58
2019-04-26T02:11:03.407Z,58
2019-04-26T02:12:02.960Z,58
2019-04-26T02:13:03.148Z,58
2019-04-26T02:14:03.620Z,58
2019-04-26T02:15:03.389Z,58
2019-04-26T02:16:03.181Z,58
2019-04-26T02:17:04.211Z,58
2019-04-26T02:18:02.800Z,58
2019-04-26T02:19:04.825Z,58
2019-04-26T02:20:04.249Z,59
2019-04-26T02:21:06.478Z,59
2019-04-26T02:22:04.410Z,59
2019-04-26T02:23:03.456Z,59
2019-04-26T02:24:04.191Z,59
2019-04-26T02:25:04.341Z,59
2019-04-26T02:26:06.040Z,59
2019-04-26T02:27:03.290Z,59
2019-04-26T02:28:04.000Z,59
2019-04-26T02:29:03.825Z,59
2019-04-26T02:30:04.067Z,59
2019-04-26T02:31:03.136Z,59
2019-04-26T02:32:03.972Z,59
2019-04-26T02:33:03.987Z,59
2019-04-26T02:34:03.088Z,59
2019-04-26T02:35:03.932Z,60
2019-04-26T02:36:03.797Z,60
2019-04-26T02:37:04.798Z,60
2019-04-26T02:38:06.511Z,60
2019-04-26T02:39:03.449Z,60
2019-04-26T02:40:03.623Z,60
2019-04-26T02:41:04.598Z,60
2019-04-26T02:42:04.266Z,60
2019-04-26T02:43:03.442Z,60
2019-04-26T02:44:03.451Z,60
2019-04-26T02:45:03.407Z,60
2019-04-26T02:46:03.476Z,60
2019-04-26T02:47:04.633Z,60
2019-04-26T02:48:03.027Z,60
2019-04-26T02:49:03.144Z,61
2019-04-26T02:50:03.066Z,61
2019-04-26T02:51:03.067Z,61
2019-04-26T02:52:03.161Z,61
2019-04-26T02:53:03.617Z,61
2019-04-26T02:54:03.649Z,61
2019-04-26T02:55:02.919Z,61
2019-04-26T02:56:03.946Z,61
2019-04-26T02:57:04.768Z,61
2019-04-26T02:58:03.531Z,61
2019-04-26T02:59:04.208Z,61
2019-04-26T03:00:02.569Z,61
2019-04-26T03:01:03.596Z,61
2019-04-26T03:02:03.515Z,61
2019-04-26T03:03:03.571Z,61
2019-04-26T03:04:03.629Z,61
2019-04-26T03:05:03.661Z,61
2019-04-26T03:06:03.478Z,61
2019-04-26T03:07:04.289Z,61
2019-04-26T03:08:03.449Z,61
2019-04-26T03:09:03.447Z,61
2019-04-26T03:10:03.376Z,61
2019-04-26T03:11:03.338Z,61
2019-04-26T03:12:03.233Z,62
2019-04-26T03:13:03.351Z,62
2019-04-26T03:14:03.084Z,62
2019-04-26T03:15:14.808Z,62
2019-04-26T03:16:03.332Z,62
2019-04-26T03:17:03.922Z,62
2019-04-26T03:18:02.896Z,62
2019-04-26T03:19:02.989Z,62
2019-04-26T03:20:03.869Z,62
2019-04-26T03:21:03.819Z,62
2019-04-26T03:22:03.738Z,62
2019-04-26T03:23:04.077Z,62
2019-04-26T03:24:03.750Z,62
2019-04-26T03:25:04.278Z,62
2019-04-26T03:26:03.773Z,62
2019-04-26T03:27:03.689Z,62
2019-04-26T03:28:03.610Z,62
2019-04-26T03:29:03.605Z,62
2019-04-26T03:30:24.033Z,62
2019-04-26T03:31:03.762Z,62
2019-04-26T03:32:03.781Z,62
2019-04-26T03:33:03.906Z,62
2019-04-26T03:34:03.864Z,62
2019-04-26T03:35:03.527Z,62
2019-04-26T03:36:03.750Z,62
2019-04-26T03:37:22.069Z,62
2019-04-26T03:38:03.439Z,62
2019-04-26T03:39:03.539Z,62
2019-04-26T03:40:03.514Z,62
2019-04-26T03:41:03.799Z,62
2019-04-26T03:42:03.279Z,63
2019-04-26T03:43:03.356Z,63
2019-04-26T03:44:03.217Z,63
2019-04-26T03:45:03.142Z,63
2019-04-26T03:46:03.067Z,63
2019-04-26T03:47:03.440Z,63
2019-04-26T03:48:03.305Z,63
2019-04-26T03:49:03.121Z,63
2019-04-26T03:50:03.095Z,63
2019-04-26T03:51:03.107Z,63
2019-04-26T03:52:03.021Z,63
2019-04-26T03:53:02.880Z,63
2019-04-26T03:54:03.046Z,63
2019-04-26T03:55:04.072Z,63
2019-04-26T03:56:02.850Z,63
2019-04-26T03:57:03.023Z,63
2019-04-26T03:58:03.811Z,63
2019-04-26T03:59:03.912Z,63
2019-04-26T04:00:02.861Z,63
2019-04-26T04:01:03.686Z,63
2019-04-26T04:02:03.484Z,63
2019-04-26T04:03:03.918Z,63
2019-04-26T04:04:03.639Z,63
2019-04-26T04:05:03.412Z,63
2019-04-26T04:06:03.428Z,63
2019-04-26T04:07:05.465Z,63
2019-04-26T04:08:03.662Z,63
2019-04-26T04:09:03.608Z,63
2019-04-26T04:10:03.600Z,63
2019-04-26T04:11:03.734Z,63
2019-04-26T04:12:12.824Z,63
2019-04-26T04:13:03.369Z,64
2019-04-26T04:14:03.665Z,64
2019-04-26T04:15:03.315Z,64
2019-04-26T04:16:03.310Z,64
2019-04-26T04:17:03.019Z,64
2019-04-26T04:18:02.960Z,64
2019-04-26T04:19:03.063Z,64
2019-04-26T04:20:03.059Z,64
2019-04-26T04:21:03.760Z,64
2019-04-26T04:22:02.824Z,64
2019-04-26T04:23:02.990Z,64
2019-04-26T04:24:03.294Z,64
2019-04-26T04:25:03.746Z,64
2019-04-26T04:26:03.702Z,64
2019-04-26T04:27:03.802Z,64
2019-04-26T04:28:03.743Z,64
2019-04-26T04:29:03.386Z,64
2019-04-26T04:30:03.643Z,64
2019-04-26T04:31:02.753Z,64
2019-04-26T04:32:03.662Z,64
2019-04-26T04:33:03.525Z,64
2019-04-26T04:34:03.652Z,64
2019-04-26T04:35:07.087Z,64
2019-04-26T04:36:03.296Z,64
2019-04-26T04:37:03.334Z,64
2019-04-26T04:38:10.208Z,64
2019-04-26T04:39:13.556Z,64
2019-04-26T04:40:03.456Z,65
2019-04-26T04:41:03.192Z,65
2019-04-26T04:42:03.470Z,65
2019-04-26T04:43:03.387Z,65
2019-04-26T04:44:03.630Z,65
2019-04-26T04:45:03.580Z,65
2019-04-26T04:46:03.698Z,65
2019-04-26T04:47:03.130Z,65
2019-04-26T04:48:03.328Z,65
2019-04-26T04:49:03.490Z,65
2019-04-26T04:50:03.021Z,65
2019-04-26T04:51:02.985Z,65
2019-04-26T04:52:03.935Z,65
2019-04-26T04:53:04.156Z,65
2019-04-26T04:54:03.775Z,65
2019-04-26T04:55:08.490Z,65
2019-04-26T04:56:03.993Z,65
2019-04-26T04:57:02.989Z,65
2019-04-26T04:58:03.623Z,65
2019-04-26T04:59:03.841Z,66
2019-04-26T05:00:04.070Z,66
2019-04-26T05:01:03.515Z,66
2019-04-26T05:02:03.761Z,66
2019-04-26T05:03:03.786Z,66
2019-04-26T05:04:03.614Z,66
2019-04-26T05:05:03.626Z,66
2019-04-26T05:06:08.217Z,66
2019-04-26T05:07:03.439Z,66
2019-04-26T05:08:07.342Z,66
2019-04-26T05:09:03.795Z,66
2019-04-26T05:10:03.664Z,66
2019-04-26T05:11:03.534Z,66
2019-04-26T05:12:03.543Z,66
2019-04-26T05:13:03.660Z,66
2019-04-26T05:14:03.325Z,66
2019-04-26T05:15:03.541Z,66
2019-04-26T05:16:03.238Z,66
2019-04-26T05:17:03.632Z,66
2019-04-26T05:18:03.230Z,66
2019-04-26T05:19:03.403Z,66
2019-04-26T05:20:03.358Z,66
2019-04-26T05:21:03.183Z,66
2019-04-26T05:22:03.003Z,66
2019-04-26T05:23:03.052Z,66
2019-04-26T05:24:03.078Z,66
2019-04-26T05:25:04.066Z,66
2019-04-26T05:26:03.485Z,66
2019-04-26T05:27:02.920Z,66
2019-04-26T05:28:03.044Z,66
2019-04-26T05:29:03.183Z,66
2019-04-26T05:30:03.182Z,66
2019-04-26T05:31:03.138Z,66
2019-04-26T05:32:03.000Z,66
2019-04-26T05:33:02.795Z,66
2019-04-26T05:34:02.705Z,66
2019-04-26T05:35:02.737Z,66
2019-04-26T05:36:03.961Z,66
2019-04-26T05:37:03.776Z,66
2019-04-26T05:38:03.677Z,66
2019-04-26T05:39:03.787Z,66
2019-04-26T05:40:03.428Z,66
2019-04-26T05:41:03.792Z,66
2019-04-26T05:42:03.609Z,66
2019-04-26T05:43:03.539Z,66
2019-04-26T05:44:03.598Z,66
2019-04-26T05:45:03.159Z,66
2019-04-26T05:46:03.374Z,66
2019-04-26T05:47:03.303Z,66
2019-04-26T05:48:12.169Z,66
2019-04-26T05:49:03.824Z,66
2019-04-26T05:50:03.422Z,66
2019-04-26T05:51:03.319Z,66
2019-04-26T05:52:03.084Z,66
2019-04-26T05:53:03.105Z,66
2019-04-26T05:54:02.886Z,66
2019-04-26T05:55:03.157Z,66
2019-04-26T05:56:03.062Z,66
2019-04-26T05:57:03.021Z,66
2019-04-26T05:58:03.115Z,66
2019-04-26T05:59:03.349Z,66
2019-04-26T06:00:02.971Z,66
2019-04-26T06:01:03.224Z,66
2019-04-26T06:02:03.822Z,66
2019-04-26T06:03:03.219Z,66
2019-04-26T06:04:03.784Z,66
2019-04-26T06:05:03.367Z,66
2019-04-26T06:06:05.664Z,66
2019-04-26T06:07:03.772Z,66
2019-04-26T06:08:03.954Z,66
2019-04-26T06:09:03.760Z,66
2019-04-26T06:10:04.040Z,66
2019-04-26T06:11:03.244Z,66
2019-04-26T06:12:03.744Z,66
2019-04-26T06:13:03.631Z,66
2019-04-26T06:14:03.671Z,66
2019-04-26T06:15:03.845Z,66
2019-04-26T06:16:03.567Z,66
2019-04-26T06:17:03.409Z,66
2019-04-26T06:18:03.265Z,66
2019-04-26T06:19:03.198Z,66
2019-04-26T06:20:03.250Z,66
2019-04-26T06:21:03.095Z,66
2019-04-26T06:22:03.332Z,66
2019-04-26T06:23:03.065Z,66
2019-04-26T06:24:03.452Z,66
2019-04-26T06:25:03.567Z,66
2019-04-26T06:26:04.852Z,66
2019-04-26T06:27:14.619Z,66
2019-04-26T06:28:03.348Z,66
2019-04-26T06:29:03.512Z,66
2019-04-26T06:30:03.673Z,66
2019-04-26T06:31:03.644Z,65
2019-04-26T06:32:02.815Z,65
2019-04-26T06:33:06.501Z,65
2019-04-26T06:34:03.216Z,64
2019-04-26T06:35:03.733Z,64
2019-04-26T06:36:03.106Z,64
2019-04-26T06:37:04.526Z,64
2019-04-26T06:38:04.121Z,64
2019-04-26T06:39:02.745Z,64
2019-04-26T06:40:03.018Z,64
2019-04-26T06:41:04.552Z,64
2019-04-26T06:42:03.103Z,64
2019-04-26T06:43:03.519Z,64
2019-04-26T06:44:04.882Z,64
2019-04-26T06:45:04.851Z,64
2019-04-26T06:46:03.649Z,64
2019-04-26T06:47:04.201Z,64
2019-04-26T06:48:04.120Z,64
2019-04-26T06:49:03.594Z,64
2019-04-26T06:50:03.727Z,64
2019-04-26T06:51:04.982Z,64
2019-04-26T06:52:03.506Z,64
2019-04-26T06:53:03.779Z,64
2019-04-26T06:54:03.654Z,64
2019-04-26T06:55:04.456Z,63
2019-04-26T06:56:03.231Z,63
2019-04-26T06:57:15.425Z,63
2019-04-26T06:58:03.294Z,63
2019-04-26T06:59:03.681Z,63
2019-04-26T07:00:04.556Z,63
2019-04-26T07:01:03.440Z,62
2019-04-26T07:02:03.244Z,62
2019-04-26T07:03:03.774Z,63
2019-04-26T07:04:04.334Z,62
2019-04-26T07:05:04.960Z,62
2019-04-26T07:06:03.054Z,62
2019-04-26T07:07:02.878Z,62
2019-04-26T07:08:07.053Z,62
2019-04-26T07:09:03.881Z,62
2019-04-26T07:10:04.241Z,62
2019-04-26T07:11:04.992Z,62
2019-04-26T07:12:03.731Z,61
2019-04-26T07:13:04.119Z,61
2019-04-26T07:14:04.820Z,61
2019-04-26T07:15:04.006Z,60
2019-04-26T07:16:23.491Z,60
2019-04-26T07:17:04.734Z,60
2019-04-26T07:18:04.584Z,60
2019-04-26T07:19:03.645Z,60
2019-04-26T07:20:07.446Z,60
2019-04-26T07:21:03.053Z,60
2019-04-26T07:22:04.215Z,60
2019-04-26T07:23:06.070Z,60
2019-04-26T07:24:04.090Z,60
2019-04-26T07:25:03.736Z,60
2019-04-26T07:26:03.967Z,60
2019-04-26T07:27:04.730Z,60
2019-04-26T07:28:12.454Z,60
2019-04-26T07:29:03.305Z,60
2019-04-26T07:30:05.523Z,60
2019-04-26T07:31:04.269Z,60
2019-04-26T07:32:03.508Z,60
2019-04-26T07:33:04.325Z,60
2019-04-26T07:34:03.740Z,60
2019-04-26T07:35:04.776Z,60
2019-04-26T07:36:03.954Z,60
2019-04-26T07:37:04.815Z,60
2019-04-26T07:38:04.938Z,60
2019-04-26T07:39:20.979Z,60
2019-04-26T07:40:03.639Z,60
2019-04-26T07:41:03.411Z,60
2019-04-26T07:42:03.474Z,60
2019-04-26T07:43:03.443Z,60
2019-04-26T07:44:04.017Z,60
2019-04-26T07:45:03.947Z,60
2019-04-26T07:46:04.223Z,60
2019-04-26T07:47:04.295Z,59
2019-04-26T07:48:03.355Z,59
2019-04-26T07:49:04.319Z,59
2019-04-26T07:50:05.226Z,59
2019-04-26T07:51:04.484Z,59
2019-04-26T07:52:04.434Z,59
2019-04-26T07:53:05.168Z,59
2019-04-26T07:54:05.172Z,59
2019-04-26T07:55:05.023Z,59
2019-04-26T07:56:05.146Z,59
2019-04-26T07:57:04.728Z,59
2019-04-26T07:58:05.364Z,59
2019-04-26T07:59:08.434Z,59
2019-04-26T08:00:04.453Z,59
2019-04-26T08:01:04.157Z,59
2019-04-26T08:02:05.247Z,59
2019-04-26T08:03:07.127Z,59
2019-04-26T08:04:05.416Z,59
2019-04-26T08:05:05.995Z,59
2019-04-26T08:06:05.930Z,59
2019-04-26T08:07:06.436Z,59
2019-04-26T08:08:07.004Z,59
2019-04-26T08:09:06.148Z,58
2019-04-26T08:10:06.216Z,58
2019-04-26T08:11:04.728Z,58
2019-04-26T08:12:06.256Z,58
2019-04-26T08:13:06.245Z,58
2019-04-26T08:14:06.403Z,58
2019-04-26T08:15:06.176Z,58
2019-04-26T08:16:08.602Z,58
2019-04-26T08:17:06.742Z,58
2019-04-26T08:18:06.721Z,58
2019-04-26T08:19:07.107Z,58
2019-04-26T08:20:12.942Z,58
2019-04-26T08:21:18.474Z,58
2019-04-26T08:22:32.167Z,58
2019-04-26T08:23:41.257Z,58
2019-04-26T08:25:03.601Z,58
2019-04-26T08:26:02.960Z,58
2019-04-26T08:27:24.207Z,57
2019-04-26T08:29:03.516Z,57
2019-04-26T08:30:19.171Z,57
2019-04-26T08:31:08.991Z,57
2019-04-26T08:32:03.506Z,57
2019-04-26T08:33:14.753Z,57
2019-04-26T08:34:03.423Z,57
2019-04-26T08:35:21.781Z,57
2019-04-26T08:36:03.313Z,57
2019-04-26T08:37:03.393Z,57
2019-04-26T08:38:22.717Z,57
2019-04-26T08:39:03.339Z,57
2019-04-26T08:40:03.374Z,57
2019-04-26T08:41:09.837Z,57
2019-04-26T08:42:03.671Z,57
2019-04-26T08:43:02.954Z,57
2019-04-26T08:44:09.441Z,57
2019-04-26T08:45:14.989Z,57
2019-04-26T08:46:03.709Z,57
2019-04-26T08:47:23.880Z,57
2019-04-26T08:48:03.042Z,57
2019-04-26T08:49:06.800Z,57
2019-04-26T08:50:02.829Z,57
2019-04-26T08:51:03.766Z,57
2019-04-26T08:52:15.249Z,57
2019-04-26T08:53:03.836Z,57
2019-04-26T08:54:03.784Z,57
2019-04-26T08:55:03.069Z,57
2019-04-26T08:56:03.701Z,57
2019-04-26T08:57:02.919Z,57
2019-04-26T08:58:03.696Z,57
2019-04-26T08:59:03.776Z,57
2019-04-26T09:00:03.953Z,57
2019-04-26T09:01:03.426Z,57
2019-04-26T09:02:03.403Z,57
2019-04-26T09:03:12.274Z,57
2019-04-26T09:04:03.511Z,56
2019-04-26T09:05:03.649Z,56
2019-04-26T09:06:03.497Z,56
2019-04-26T09:07:03.633Z,56
2019-04-26T09:08:04.201Z,56
2019-04-26T09:09:03.104Z,56
2019-04-26T09:10:11.609Z,57
2019-04-26T09:11:02.954Z,56
2019-04-26T09:12:09.933Z,56
2019-04-26T09:13:03.024Z,56
2019-04-26T09:14:03.380Z,56
2019-04-26T09:15:02.785Z,56
2019-04-26T09:16:03.620Z,56
2019-04-26T09:17:03.141Z,56
2019-04-26T09:18:07.063Z,56
2019-04-26T09:19:02.919Z,56
2019-04-26T09:20:09.781Z,56
2019-04-26T09:21:02.758Z,56
2019-04-26T09:22:13.756Z,56
2019-04-26T09:23:05.205Z,56
2019-04-26T09:24:03.644Z,56
2019-04-26T09:25:03.743Z,56
2019-04-26T09:26:03.750Z,56
2019-04-26T09:27:03.031Z,56
2019-04-26T09:28:03.619Z,56
2019-04-26T09:29:03.726Z,56
2019-04-26T09:30:06.596Z,56
2019-04-26T09:31:03.286Z,56
2019-04-26T09:32:03.641Z,56
2019-04-26T09:33:03.584Z,56
2019-04-26T09:34:11.557Z,56
2019-04-26T09:35:03.309Z,56
2019-04-26T09:36:03.257Z,56
2019-04-26T09:37:03.079Z,56
2019-04-26T09:38:03.310Z,56
2019-04-26T09:39:09.887Z,56
2019-04-26T09:40:21.494Z,56
2019-04-26T09:41:03.139Z,56
2019-04-26T09:42:09.890Z,56
2019-04-26T09:43:02.993Z,56
2019-04-26T09:44:02.974Z,55
2019-04-26T09:45:02.848Z,55
2019-04-26T09:46:03.935Z,55
2019-04-26T09:47:02.861Z,55
2019-04-26T09:48:03.734Z,55
2019-04-26T09:49:08.690Z,55
2019-04-26T09:50:03.646Z,55
2019-04-26T09:51:03.566Z,55
2019-04-26T09:52:03.401Z,55
2019-04-26T09:53:03.249Z,55
2019-04-26T09:54:03.400Z,55
2019-04-26T09:55:03.476Z,55
2019-04-26T09:56:03.407Z,54
2019-04-26T09:57:03.210Z,54
2019-04-26T09:58:03.296Z,54
2019-04-26T09:59:06.940Z,54
2019-04-26T10:00:02.939Z,54
2019-04-26T10:01:06.374Z,54
2019-04-26T10:02:03.146Z,54
2019-04-26T10:03:10.870Z,54
2019-04-26T10:04:03.631Z,54
2019-04-26T10:05:03.187Z,54
2019-04-26T10:06:02.951Z,54
2019-04-26T10:07:04.345Z,54
2019-04-26T10:08:03.758Z,54
2019-04-26T10:09:02.934Z,54
2019-04-26T10:10:03.959Z,54
2019-04-26T10:11:10.977Z,54
2019-04-26T10:12:03.826Z,54
2019-04-26T10:13:03.767Z,54
2019-04-26T10:14:03.740Z,54
2019-04-26T10:15:03.882Z,54
2019-04-26T10:16:04.486Z,54
2019-04-26T10:17:03.447Z,55
2019-04-26T10:18:03.629Z,55
2019-04-26T10:19:03.385Z,55
2019-04-26T10:20:03.485Z,55
2019-04-26T10:21:03.140Z,55
2019-04-26T10:22:03.176Z,55
2019-04-26T10:23:03.278Z,55
2019-04-26T10:24:01.999Z,55
2019-04-26T10:25:17.199Z,55
2019-04-26T10:26:03.221Z,55
2019-04-26T10:27:05.082Z,55
2019-04-26T10:28:02.979Z,55
2019-04-26T10:29:03.040Z,55
2019-04-26T10:30:09.762Z,55
2019-04-26T10:31:03.199Z,55
2019-04-26T10:32:03.091Z,55
2019-04-26T10:33:03.697Z,55
2019-04-26T10:34:03.076Z,55
2019-04-26T10:35:02.901Z,55
2019-04-26T10:36:03.920Z,55
2019-04-26T10:37:08.132Z,55
2019-04-26T10:38:03.592Z,55
2019-04-26T10:39:03.674Z,55
2019-04-26T10:40:03.629Z,56
2019-04-26T10:41:03.649Z,56
2019-04-26T10:42:03.706Z,56
2019-04-26T10:43:03.659Z,55
2019-04-26T10:44:02.835Z,56
2019-04-26T10:45:03.667Z,56
2019-04-26T10:46:03.528Z,56
2019-04-26T10:47:06.228Z,56
2019-04-26T10:48:03.073Z,56
2019-04-26T10:49:12.219Z,56
2019-04-26T10:50:03.266Z,56
2019-04-26T10:51:09.026Z,56
2019-04-26T10:52:02.970Z,56
2019-04-26T10:53:03.013Z,56
2019-04-26T10:54:07.861Z,56
2019-04-26T10:55:02.982Z,56
2019-04-26T10:56:03.135Z,56
2019-04-26T10:57:02.946Z,56
2019-04-26T10:58:03.026Z,56
2019-04-26T10:59:11.085Z,56
2019-04-26T11:00:03.928Z,56
2019-04-26T11:01:03.846Z,56
2019-04-26T11:02:03.732Z,56
2019-04-26T11:03:06.343Z,56
2019-04-26T11:04:03.695Z,56
2019-04-26T11:05:03.505Z,56
2019-04-26T11:06:03.385Z,56
2019-04-26T11:07:03.654Z,56
2019-04-26T11:08:03.463Z,56
2019-04-26T11:09:03.387Z,56
2019-04-26T11:10:03.443Z,56
2019-04-26T11:11:03.596Z,56
2019-04-26T11:12:03.493Z,56
2019-04-26T11:13:03.387Z,56
2019-04-26T11:14:03.090Z,56
2019-04-26T11:15:06.023Z,56
2019-04-26T11:16:09.109Z,57
2019-04-26T11:17:03.068Z,57
2019-04-26T11:18:02.970Z,57
2019-04-26T11:19:02.785Z,57
2019-04-26T11:20:12.093Z,57
2019-04-26T11:21:04.003Z,57
2019-04-26T11:22:03.846Z,57
2019-04-26T11:23:03.776Z,57
2019-04-26T11:24:03.779Z,57
2019-04-26T11:25:03.877Z,57
2019-04-26T11:26:03.437Z,57
2019-04-26T11:27:11.306Z,57
2019-04-26T11:28:03.833Z,57
2019-04-26T11:29:03.713Z,57
2019-04-26T11:30:21.507Z,57
2019-04-26T11:31:03.741Z,57
2019-04-26T11:32:04.455Z,57
2019-04-26T11:33:03.458Z,57
2019-04-26T11:34:05.981Z,57
2019-04-26T11:35:03.766Z,57
2019-04-26T11:36:09.054Z,57
2019-04-26T11:37:02.923Z,57
2019-04-26T11:38:03.307Z,57
2019-04-26T11:39:07.830Z,57
2019-04-26T11:40:03.202Z,58
2019-04-26T11:41:07.322Z,58
2019-04-26T11:42:03.261Z,58
2019-04-26T11:43:02.944Z,58
2019-04-26T11:44:03.436Z,58
2019-04-26T11:45:15.764Z,58
2019-04-26T11:46:05.396Z,58
2019-04-26T11:47:08.261Z,58
2019-04-26T11:48:03.596Z,58
2019-04-26T11:49:08.448Z,58
2019-04-26T11:50:03.656Z,58
2019-04-26T11:51:03.592Z,58
2019-04-26T11:52:04.210Z,58
2019-04-26T11:53:11.315Z,58
2019-04-26T11:54:03.784Z,58
2019-04-26T11:55:04.001Z,58
2019-04-26T11:56:06.018Z,58
2019-04-26T11:57:03.133Z,58
2019-04-26T11:58:03.157Z,58
2019-04-26T11:59:03.371Z,58
2019-04-26T12:00:06.847Z,58
2019-04-26T12:01:03.873Z,58
2019-04-26T12:02:03.045Z,58
2019-04-26T12:03:03.742Z,58
2019-04-26T12:04:03.646Z,58
2019-04-26T12:05:03.570Z,58
2019-04-26T12:06:03.908Z,58
2019-04-26T12:07:03.346Z,59
2019-04-26T12:08:03.382Z,59
2019-04-26T12:09:03.479Z,59
2019-04-26T12:10:11.432Z,59
2019-04-26T12:11:03.211Z,60
2019-04-26T12:12:12.601Z,59
2019-04-26T12:13:06.408Z,60
2019-04-26T12:14:04.588Z,60
2019-04-26T12:15:10.278Z,60
2019-04-26T12:16:02.831Z,60
2019-04-26T12:17:03.307Z,60
2019-04-26T12:18:11.309Z,60
2019-04-26T12:19:03.105Z,60
2019-04-26T12:20:03.602Z,61
2019-04-26T12:21:02.879Z,61
2019-04-26T12:22:10.055Z,61
2019-04-26T12:23:03.680Z,61
2019-04-26T12:24:03.481Z,61
2019-04-26T12:25:08.556Z,61
2019-04-26T12:26:02.702Z,61
2019-04-26T12:27:03.578Z,61
2019-04-26T12:28:07.827Z,61
2019-04-26T12:29:03.330Z,61
2019-04-26T12:30:03.760Z,61
2019-04-26T12:31:02.824Z,61
2019-04-26T12:32:03.286Z,61
2019-04-26T12:33:03.364Z,61
2019-04-26T12:34:03.063Z,61
2019-04-26T12:35:03.461Z,61
2019-04-26T12:36:03.632Z,61
2019-04-26T12:37:03.587Z,61
2019-04-26T12:38:03.509Z,61
2019-04-26T12:39:03.678Z,61
2019-04-26T12:40:03.369Z,61
2019-04-26T12:41:03.054Z,61
2019-04-26T12:42:03.143Z,61
2019-04-26T12:43:03.509Z,61
2019-04-26T12:44:03.590Z,61
2019-04-26T12:45:02.956Z,61
2019-04-26T12:46:02.786Z,61
2019-04-26T12:47:05.399Z,61
2019-04-26T12:48:02.950Z,61
2019-04-26T12:49:03.080Z,61
2019-04-26T12:50:03.181Z,61
2019-04-26T12:51:03.033Z,61
2019-04-26T12:52:03.959Z,61
2019-04-26T12:53:03.875Z,61
2019-04-26T12:54:09.996Z,61
2019-04-26T12:55:03.638Z,61
2019-04-26T12:56:03.645Z,62
2019-04-26T12:57:07.159Z,62
2019-04-26T12:58:03.550Z,62
2019-04-26T12:59:03.576Z,62
2019-04-26T13:00:03.916Z,62
2019-04-26T13:01:03.777Z,62
2019-04-26T13:02:06.419Z,62
2019-04-26T13:03:03.723Z,62
2019-04-26T13:04:03.887Z,62
2019-04-26T13:05:03.850Z,62
2019-04-26T13:06:03.687Z,62
2019-04-26T13:07:22.979Z,62
2019-04-26T13:09:03.361Z,62
2019-04-26T13:10:03.542Z,62
2019-04-26T13:11:16.216Z,62
2019-04-26T13:12:03.657Z,62
2019-04-26T13:13:03.378Z,62
2019-04-26T13:14:03.671Z,62
2019-04-26T13:15:03.527Z,62
2019-04-26T13:16:03.386Z,62
2019-04-26T13:17:03.329Z,62
2019-04-26T13:18:03.572Z,62
2019-04-26T13:19:03.184Z,63
2019-04-26T13:20:03.179Z,63
2019-04-26T13:21:04.661Z,63
2019-04-26T13:22:03.346Z,63
2019-04-26T13:23:03.280Z,63
2019-04-26T13:24:06.398Z,63
2019-04-26T13:25:03.365Z,63
2019-04-26T13:26:02.896Z,63
2019-04-26T13:27:12.438Z,63
2019-04-26T13:28:03.761Z,63
2019-04-26T13:29:03.220Z,63
2019-04-26T13:30:12.169Z,63
2019-04-26T13:31:03.128Z,63
2019-04-26T13:32:03.796Z,63
2019-04-26T13:33:03.717Z,63
2019-04-26T13:34:04.905Z,63
2019-04-26T13:35:13.107Z,63
2019-04-26T13:36:03.699Z,63
2019-04-26T13:37:04.255Z,63
2019-04-26T13:38:10.151Z,63
2019-04-26T13:39:03.611Z,63
2019-04-26T13:40:03.570Z,63
2019-04-26T13:41:06.460Z,63
2019-04-26T13:42:17.184Z,63
2019-04-26T13:43:03.407Z,63
2019-04-26T13:44:06.054Z,63
2019-04-26T13:45:03.467Z,63
2019-04-26T13:46:03.642Z,63
2019-04-26T13:47:09.665Z,63
2019-04-26T13:48:03.361Z,63
2019-04-26T13:49:04.534Z,63
2019-04-26T13:50:03.313Z,64
2019-04-26T13:51:06.154Z,64
2019-04-26T13:52:03.172Z,64
2019-04-26T13:53:03.443Z,64
2019-04-26T13:54:03.229Z,64
2019-04-26T13:55:03.380Z,64
2019-04-26T13:56:03.619Z,64
2019-04-26T13:57:11.316Z,64
2019-04-26T13:58:03.075Z,64
2019-04-26T13:59:03.067Z,64
2019-04-26T14:00:11.907Z,64
2019-04-26T14:01:03.814Z,64
2019-04-26T14:02:12.377Z,65
2019-04-26T14:03:03.064Z,65
2019-04-26T14:04:09.220Z,65
2019-04-26T14:05:02.846Z,65
2019-04-26T14:06:02.908Z,65
2019-04-26T14:07:03.628Z,65
2019-04-26T14:08:03.820Z,65
2019-04-26T14:09:03.208Z,65
2019-04-26T14:10:03.828Z,65
2019-04-26T14:11:03.626Z,66
2019-04-26T14:12:19.329Z,66
2019-04-26T14:13:03.777Z,66
2019-04-26T14:14:03.295Z,66
2019-04-26T14:15:10.318Z,66
2019-04-26T14:16:03.469Z,66
2019-04-26T14:17:03.537Z,66
2019-04-26T14:18:05.481Z,66
2019-04-26T14:19:03.630Z,66
2019-04-26T14:20:03.600Z,66
2019-04-26T14:21:03.520Z,67